Time;durP1;ratioP1;P1;durP2;ratioP2;P2;SDS_P1;SDS_P2;PMS_P1;PMS_P2;Temp;Humidity;BMP_temperature;BMP_pressure;BME280_temperature;BME280_humidity;BME280_pressure;Samples;Min_cycle;Max_cycle;Signal;HPM_P1;HPM_P2
2021/01/14 00:00:48;;;;;;;;;;;13.70;81.90;;;;;;2065166;28;19926;-76
2021/01/14 00:01:49;;;;;;;;;;;13.60;82.60;;;;;;2057004;28;19942;-76
2021/01/14 00:02:53;;;;;;;;;;;13.90;82.70;;;;;;2056747;28;20183;-76
2021/01/14 00:03:55;;;;;;;;;;;13.60;83.30;;;;;;2065356;28;19926;-76
2021/01/14 00:04:56;;;;;;;;;;;13.50;83.30;;;;;;2066197;28;19948;-77
2021/01/14 00:05:58;;;;;;;;;;;13.60;83.90;;;;;;2073490;28;19933;-77
2021/01/14 00:06:59;;;;;;;;;;;13.50;84.30;;;;;;2073101;28;19925;-76
2021/01/14 00:08:01;;;;;;;;;;;13.40;84.80;;;;;;2065308;28;19969;-76
2021/01/14 00:09:02;;;;;;;;;;;13.60;85.30;;;;;;2057285;28;20390;-76
2021/01/14 00:10:04;;;;;;;;;;;13.40;86.40;;;;;;2065366;28;19933;-77
2021/01/14 00:11:06;;;;;;;;;;;13.40;85.40;;;;;;2065211;28;20290;-76
2021/01/14 00:12:07;;;;;;;;;;;13.10;85.50;;;;;;2065268;28;20106;-76
2021/01/14 00:13:09;;;;;;;;;;;13.20;87.60;;;;;;2073186;28;19957;-77
2021/01/14 00:14:10;;;;;;;;;;;13.50;85.80;;;;;;2072995;28;19926;-76
2021/01/14 00:15:13;;;;;;;;;;;13.20;86.00;;;;;;2057368;28;19926;-76
2021/01/14 00:16:14;;;;;;;;;;;13.10;85.70;;;;;;2057517;28;20342;-78
2021/01/14 00:17:18;;;;;;;;;;;12.80;87.70;;;;;;2065307;28;19932;-77
2021/01/14 00:18:21;;;;;;;;;;;12.80;88.00;;;;;;2057440;28;19927;-77
2021/01/14 00:19:23;;;;;;;;;;;12.90;87.20;;;;;;2057095;28;20259;-77
2021/01/14 00:20:25;;;;;;;;;;;13.10;87.10;;;;;;2057834;28;19927;-78
2021/01/14 00:21:27;;;;;;;;;;;13.50;86.00;;;;;;2058045;28;19926;-77
2021/01/14 00:22:28;;;;;;;;;;;13.60;85.50;;;;;;2065630;28;19926;-77
2021/01/14 00:23:30;;;;;;;;;;;13.40;85.60;;;;;;2057002;28;19934;-77
2021/01/14 00:24:31;;;;;;;;;;;13.50;85.40;;;;;;2057377;28;19930;-77
2021/01/14 00:25:33;;;;;;;;;;;13.50;84.60;;;;;;2057572;28;19926;-77
2021/01/14 00:26:34;;;;;;;;;;;13.40;84.60;;;;;;2057701;28;19926;-77
2021/01/14 00:27:36;;;;;;;;;;;13.40;84.70;;;;;;2065318;28;19933;-76
2021/01/14 00:28:38;;;;;;;;;;;13.30;85.70;;;;;;2065427;28;20290;-77
2021/01/14 00:29:39;;;;;;;;;;;13.50;84.40;;;;;;2058215;28;19926;-76
2021/01/14 00:30:41;;;;;;;;;;;13.60;84.10;;;;;;2058315;28;20366;-76
2021/01/14 00:31:42;;;;;;;;;;;13.90;83.40;;;;;;2066090;28;20346;-76
2021/01/14 00:32:44;;;;;;;;;;;13.70;83.40;;;;;;2058850;28;19926;-76
2021/01/14 00:33:45;;;;;;;;;;;13.60;84.00;;;;;;2066638;28;19957;-76
2021/01/14 00:34:47;;;;;;;;;;;13.90;83.40;;;;;;2058579;28;19926;-77
2021/01/14 00:35:49;;;;;;;;;;;13.90;82.60;;;;;;2058617;28;19933;-76
2021/01/14 00:38:10;;;;;;;;;;;14.20;81.70;;;;;;2058639;28;19934;-76
2021/01/14 00:39:11;;;;;;;;;;;14.00;81.50;;;;;;2066006;28;20354;-76
2021/01/14 00:40:14;;;;;;;;;;;14.20;80.80;;;;;;2057115;28;20401;-76
2021/01/14 00:41:15;;;;;;;;;;;14.20;81.20;;;;;;2057008;28;20317;-76
2021/01/14 00:42:17;;;;;;;;;;;14.40;80.40;;;;;;2057072;28;19926;-76
2021/01/14 00:43:18;;;;;;;;;;;14.00;81.80;;;;;;2057175;28;19926;-77
2021/01/14 00:44:20;;;;;;;;;;;14.10;81.90;;;;;;2065384;28;19933;-76
2021/01/14 00:45:21;;;;;;;;;;;13.60;83.70;;;;;;2057059;28;19926;-76
2021/01/14 00:46:23;;;;;;;;;;;13.20;85.10;;;;;;2065273;28;19933;-77
2021/01/14 00:47:24;;;;;;;;;;;13.60;84.30;;;;;;2065260;28;19926;-79
2021/01/14 00:48:26;;;;;;;;;;;13.90;82.90;;;;;;2057234;28;19926;-76
2021/01/14 00:49:27;;;;;;;;;;;13.50;83.60;;;;;;2065603;28;19926;-76
2021/01/14 00:50:30;;;;;;;;;;;13.60;83.60;;;;;;2057973;28;19926;-78
2021/01/14 00:51:34;;;;;;;;;;;13.60;83.40;;;;;;2058311;28;19937;-77
2021/01/14 00:52:35;;;;;;;;;;;13.40;84.10;;;;;;2058453;28;19926;-77
2021/01/14 00:53:37;;;;;;;;;;;13.10;84.90;;;;;;2066169;28;20260;-77
2021/01/14 00:54:39;;;;;;;;;;;13.10;85.20;;;;;;2073710;28;19971;-76
2021/01/14 00:55:41;;;;;;;;;;;13.10;85.90;;;;;;2074127;28;19929;-80
2021/01/14 00:56:42;;;;;;;;;;;13.20;85.40;;;;;;2068043;28;19926;-78
2021/01/14 00:57:44;;;;;;;;;;;13.00;86.30;;;;;;2068181;28;19932;-78
2021/01/14 00:58:46;;;;;;;;;;;13.00;85.90;;;;;;2074118;28;19926;-77
2021/01/14 00:59:47;;;;;;;;;;;13.00;86.00;;;;;;2064917;28;19925;-77
2021/01/14 01:00:49;;;;;;;;;;;13.30;85.80;;;;;;2056909;28;20406;-77
2021/01/14 01:01:50;;;;;;;;;;;13.20;85.80;;;;;;2056899;28;19926;-78
2021/01/14 01:02:52;;;;;;;;;;;13.30;85.50;;;;;;2064979;28;19933;-77
2021/01/14 01:03:54;;;;;;;;;;;13.20;85.40;;;;;;2073103;28;19925;-77
2021/01/14 01:04:56;;;;;;;;;;;12.90;86.00;;;;;;2064741;28;19945;-77
2021/01/14 01:05:58;;;;;;;;;;;13.60;85.10;;;;;;2057157;28;19930;-77
2021/01/14 01:07:00;;;;;;;;;;;13.50;84.10;;;;;;2065059;28;19930;-76
2021/01/14 01:08:01;;;;;;;;;;;13.80;83.80;;;;;;2065641;28;19930;-77
2021/01/14 01:09:03;;;;;;;;;;;13.60;83.40;;;;;;2065523;28;19932;-77
2021/01/14 01:10:05;;;;;;;;;;;13.40;84.70;;;;;;2073136;28;20381;-76
2021/01/14 01:11:07;;;;;;;;;;;13.50;84.10;;;;;;2065057;28;19926;-76
2021/01/14 01:12:10;;;;;;;;;;;13.20;84.90;;;;;;2057352;28;19926;-76
2021/01/14 01:13:11;;;;;;;;;;;13.20;85.50;;;;;;2065287;28;19926;-77
2021/01/14 01:14:13;;;;;;;;;;;13.30;85.00;;;;;;2064753;28;19933;-77
2021/01/14 01:15:14;;;;;;;;;;;13.50;84.50;;;;;;2065300;28;19933;-76
2021/01/14 01:16:16;;;;;;;;;;;13.50;83.50;;;;;;2065182;28;19972;-77
2021/01/14 01:17:18;;;;;;;;;;;13.60;83.00;;;;;;2057122;28;20414;-76
2021/01/14 01:18:20;;;;;;;;;;;13.50;83.00;;;;;;2056982;28;19926;-77
2021/01/14 01:19:21;;;;;;;;;;;13.40;83.30;;;;;;2056941;28;20290;-76
2021/01/14 01:20:23;;;;;;;;;;;13.50;83.50;;;;;;2057186;28;19926;-76
2021/01/14 01:21:25;;;;;;;;;;;13.70;83.60;;;;;;2057034;28;20411;-77
2021/01/14 01:22:27;;;;;;;;;;;13.50;82.60;;;;;;2057304;28;19926;-76
2021/01/14 01:23:29;;;;;;;;;;;14.00;82.60;;;;;;2057133;28;19930;-77
2021/01/14 01:24:30;;;;;;;;;;;13.90;81.60;;;;;;2057351;28;20457;-79
2021/01/14 01:25:32;;;;;;;;;;;13.70;81.10;;;;;;2057902;28;19929;-77
2021/01/14 01:26:33;;;;;;;;;;;13.60;81.80;;;;;;2058277;28;19949;-77
2021/01/14 01:27:36;;;;;;;;;;;13.70;82.00;;;;;;2058785;28;19933;-76
2021/01/14 01:28:38;;;;;;;;;;;13.50;82.40;;;;;;2059540;28;19933;-76
2021/01/14 01:29:39;;;;;;;;;;;13.60;82.30;;;;;;2059395;28;19926;-77
2021/01/14 01:30:40;;;;;;;;;;;13.70;82.70;;;;;;2067343;28;19929;-77
2021/01/14 01:31:42;;;;;;;;;;;13.90;81.60;;;;;;2067492;28;19933;-76
2021/01/14 01:32:47;;;;;;;;;;;14.40;80.90;;;;;;2067092;28;19937;-76
2021/01/14 01:33:48;;;;;;;;;;;14.20;80.20;;;;;;2059578;28;20444;-77
2021/01/14 01:34:50;;;;;;;;;;;14.10;80.30;;;;;;2058711;28;19926;-77
2021/01/14 01:35:51;;;;;;;;;;;14.10;80.30;;;;;;2058843;28;19937;-76
2021/01/14 01:36:54;;;;;;;;;;;14.40;80.30;;;;;;2058157;28;19946;-76
2021/01/14 01:37:55;;;;;;;;;;;14.40;79.80;;;;;;2057008;28;20378;-77
2021/01/14 01:38:57;;;;;;;;;;;13.90;80.60;;;;;;2057073;28;19933;-77
2021/01/14 01:39:58;;;;;;;;;;;14.30;80.50;;;;;;2064588;28;19926;-77
2021/01/14 01:41:00;;;;;;;;;;;14.50;79.80;;;;;;2064992;28;19998;-77
2021/01/14 01:42:03;;;;;;;;;;;13.90;80.80;;;;;;2056501;28;19933;-76
2021/01/14 01:43:05;;;;;;;;;;;13.70;82.30;;;;;;2057208;28;19926;-77
2021/01/14 01:44:06;;;;;;;;;;;13.70;82.10;;;;;;2056965;28;19949;-77
2021/01/14 01:45:08;;;;;;;;;;;13.40;82.40;;;;;;2057476;28;19926;-77
2021/01/14 01:46:11;;;;;;;;;;;13.60;82.70;;;;;;2056844;28;20405;-76
2021/01/14 01:47:13;;;;;;;;;;;13.60;82.90;;;;;;2057235;28;20375;-76
2021/01/14 01:48:15;;;;;;;;;;;13.80;82.60;;;;;;2056865;28;19992;-77
2021/01/14 01:49:17;;;;;;;;;;;14.10;81.70;;;;;;2057254;28;19933;-76
2021/01/14 01:50:20;;;;;;;;;;;13.60;81.20;;;;;;2064514;28;20369;-76
2021/01/14 01:51:22;;;;;;;;;;;13.90;81.40;;;;;;2064568;28;19937;-76
2021/01/14 01:52:24;;;;;;;;;;;13.90;81.50;;;;;;2056791;28;19926;-76
2021/01/14 01:53:27;;;;;;;;;;;13.90;82.00;;;;;;2064864;28;19930;-76
2021/01/14 01:54:29;;;;;;;;;;;13.80;81.30;;;;;;2064682;28;19929;-76
2021/01/14 01:55:31;;;;;;;;;;;13.70;81.80;;;;;;2057088;28;20306;-77
2021/01/14 01:56:33;;;;;;;;;;;13.60;82.40;;;;;;2064892;28;20013;-77
2021/01/14 01:57:34;;;;;;;;;;;13.80;82.30;;;;;;2065513;28;20136;-77
2021/01/14 01:58:39;;;;;;;;;;;14.10;81.40;;;;;;2065452;28;20310;-76
2021/01/14 01:59:40;;;;;;;;;;;14.20;80.60;;;;;;2065621;28;19925;-77
2021/01/14 02:00:42;;;;;;;;;;;14.40;80.20;;;;;;2064849;28;19933;-78
2021/01/14 02:01:43;;;;;;;;;;;14.20;79.70;;;;;;2056480;28;20498;-76
2021/01/14 02:02:45;;;;;;;;;;;14.20;80.10;;;;;;2064894;28;19926;-76
2021/01/14 02:03:46;;;;;;;;;;;14.20;80.30;;;;;;2072669;28;19932;-77
2021/01/14 02:04:48;;;;;;;;;;;14.20;80.00;;;;;;2065346;28;20298;-76
2021/01/14 02:05:49;;;;;;;;;;;14.30;79.90;;;;;;2065176;28;19925;-77
2021/01/14 02:06:55;;;;;;;;;;;13.90;81.80;;;;;;2056906;28;20310;-78
2021/01/14 02:08:04;;;;;;;;;;;13.80;81.80;;;;;;2064960;28;19997;-77
2021/01/14 02:09:07;;;;;;;;;;;14.00;81.20;;;;;;2065870;28;20308;-76
2021/01/14 02:10:12;;;;;;;;;;;14.20;80.70;;;;;;2065116;28;19940;-77
2021/01/14 02:11:16;;;;;;;;;;;13.80;81.50;;;;;;2057564;28;19937;-78
2021/01/14 02:12:19;;;;;;;;;;;13.70;82.30;;;;;;2065451;28;20263;-76
2021/01/14 02:13:26;;;;;;;;;;;13.70;82.40;;;;;;2072838;28;19925;-77
2021/01/14 02:14:28;;;;;;;;;;;13.40;83.30;;;;;;2064698;28;19935;-76
2021/01/14 02:15:31;;;;;;;;;;;13.60;82.80;;;;;;2065145;28;19932;-76
2021/01/14 02:16:33;;;;;;;;;;;13.80;82.40;;;;;;2065031;28;19926;-77
2021/01/14 02:17:34;;;;;;;;;;;13.80;82.00;;;;;;2057024;28;19926;-78
2021/01/14 02:18:36;;;;;;;;;;;13.70;81.90;;;;;;2065081;28;19932;-77
2021/01/14 02:19:38;;;;;;;;;;;13.60;82.60;;;;;;2064607;28;19933;-77
2021/01/14 02:20:40;;;;;;;;;;;13.80;82.30;;;;;;2057125;28;19933;-77
2021/01/14 02:21:44;;;;;;;;;;;13.70;82.30;;;;;;2056894;28;20329;-76
2021/01/14 02:22:50;;;;;;;;;;;13.80;81.80;;;;;;2065032;28;19925;-76
2021/01/14 02:23:58;;;;;;;;;;;14.10;81.70;;;;;;2066114;28;19926;-76
2021/01/14 02:25:05;;;;;;;;;;;14.30;80.90;;;;;;2059988;28;20414;-78
2021/01/14 02:26:14;;;;;;;;;;;14.10;80.50;;;;;;2061761;28;19926;-77
2021/01/14 02:27:16;;;;;;;;;;;14.10;80.60;;;;;;2061532;28;19934;-76
2021/01/14 02:28:18;;;;;;;;;;;14.40;79.90;;;;;;2068795;28;19926;-77
2021/01/14 02:29:20;;;;;;;;;;;14.40;79.80;;;;;;2068462;28;19933;-77
2021/01/14 02:30:22;;;;;;;;;;;14.30;79.20;;;;;;2060499;28;19941;-78
2021/01/14 02:31:24;;;;;;;;;;;14.30;79.10;;;;;;2060814;28;19926;-77
2021/01/14 02:32:25;;;;;;;;;;;14.20;80.50;;;;;;2060364;28;19926;-77
2021/01/14 02:33:27;;;;;;;;;;;14.30;80.00;;;;;;2068260;28;19930;-76
2021/01/14 02:34:28;;;;;;;;;;;14.00;80.20;;;;;;2067682;28;19925;-77
2021/01/14 02:35:29;;;;;;;;;;;13.80;80.00;;;;;;2060103;28;19930;-76
2021/01/14 02:36:31;;;;;;;;;;;13.70;81.50;;;;;;2060546;28;20367;-77
2021/01/14 02:37:32;;;;;;;;;;;13.90;81.50;;;;;;2060435;28;19926;-76
2021/01/14 02:38:35;;;;;;;;;;;13.90;80.00;;;;;;2059638;28;20483;-77
2021/01/14 02:39:36;;;;;;;;;;;14.00;80.20;;;;;;2058913;28;19927;-76
2021/01/14 02:40:37;;;;;;;;;;;13.70;79.70;;;;;;2058066;28;20429;-76
2021/01/14 02:41:40;;;;;;;;;;;13.60;80.50;;;;;;2058132;28;19926;-77
2021/01/14 02:42:41;;;;;;;;;;;13.60;81.50;;;;;;2058183;28;20117;-76
2021/01/14 02:43:43;;;;;;;;;;;13.70;80.50;;;;;;2058171;28;19933;-76
2021/01/14 02:44:44;;;;;;;;;;;13.90;81.10;;;;;;2057962;28;20108;-76
2021/01/14 02:45:46;;;;;;;;;;;13.80;79.90;;;;;;2057882;28;19926;-76
2021/01/14 02:46:47;;;;;;;;;;;13.80;80.10;;;;;;2058127;28;20310;-75
2021/01/14 02:47:49;;;;;;;;;;;13.80;79.50;;;;;;2065744;28;19933;-75
2021/01/14 02:48:57;;;;;;;;;;;13.80;80.80;;;;;;2065754;28;20371;-76
2021/01/14 02:50:02;;;;;;;;;;;13.90;80.60;;;;;;2058825;28;19926;-77
2021/01/14 02:51:05;;;;;;;;;;;13.80;80.70;;;;;;2058297;28;19926;-77
2021/01/14 02:52:07;;;;;;;;;;;14.00;80.20;;;;;;2058132;28;19957;-77
2021/01/14 02:53:13;;;;;;;;;;;14.30;79.90;;;;;;2057660;28;19956;-76
2021/01/14 02:54:15;;;;;;;;;;;14.20;79.30;;;;;;2058292;28;19933;-76
2021/01/14 02:55:17;;;;;;;;;;;14.20;78.80;;;;;;2065387;28;20105;-75
2021/01/14 02:56:20;;;;;;;;;;;14.10;78.70;;;;;;2065727;28;19926;-76
2021/01/14 02:57:24;;;;;;;;;;;13.90;78.70;;;;;;2058078;28;19927;-77
2021/01/14 02:58:26;;;;;;;;;;;14.30;79.40;;;;;;2058057;28;19933;-77
2021/01/14 02:59:27;;;;;;;;;;;14.20;78.40;;;;;;2065543;28;20247;-76
2021/01/14 03:00:29;;;;;;;;;;;14.60;78.70;;;;;;2065630;28;19976;-76
2021/01/14 03:01:30;;;;;;;;;;;14.50;77.00;;;;;;2066046;28;19926;-76
2021/01/14 03:02:32;;;;;;;;;;;14.40;77.80;;;;;;2073568;28;19933;-76
2021/01/14 03:03:33;;;;;;;;;;;14.20;78.40;;;;;;2073396;28;19925;-76
2021/01/14 03:04:35;;;;;;;;;;;14.00;78.80;;;;;;2073907;28;19987;-77
2021/01/14 03:05:36;;;;;;;;;;;14.10;78.80;;;;;;2065421;28;20393;-76
2021/01/14 03:06:38;;;;;;;;;;;14.30;78.60;;;;;;2065680;28;19926;-76
2021/01/14 03:07:39;;;;;;;;;;;14.20;78.60;;;;;;2074216;28;19929;-77
2021/01/14 03:08:41;;;;;;;;;;;14.60;78.30;;;;;;2074043;28;20357;-77
2021/01/14 03:09:42;;;;;;;;;;;14.90;77.10;;;;;;2073858;28;19933;-76
2021/01/14 03:10:44;;;;;;;;;;;14.70;76.50;;;;;;2073687;28;19936;-76
2021/01/14 03:11:45;;;;;;;;;;;14.50;76.80;;;;;;2073763;28;19926;-77
2021/01/14 03:12:47;;;;;;;;;;;14.70;77.60;;;;;;2074147;28;20339;-77
2021/01/14 03:13:49;;;;;;;;;;;14.40;77.20;;;;;;2065953;28;20331;-77
2021/01/14 03:14:51;;;;;;;;;;;14.40;77.60;;;;;;2066361;28;19926;-77
2021/01/14 03:15:52;;;;;;;;;;;14.40;77.40;;;;;;2074203;28;19932;-78
2021/01/14 03:16:53;;;;;;;;;;;14.40;77.40;;;;;;2074837;28;20535;-77
2021/01/14 03:17:55;;;;;;;;;;;14.50;78.20;;;;;;2066248;28;20294;-77
2021/01/14 03:18:56;;;;;;;;;;;14.60;77.50;;;;;;2067492;28;19949;-75
2021/01/14 03:19:58;;;;;;;;;;;14.60;78.30;;;;;;2075671;28;20409;-77
2021/01/14 03:21:00;;;;;;;;;;;14.40;78.20;;;;;;2067878;28;19926;-78
2021/01/14 03:22:01;;;;;;;;;;;14.20;78.30;;;;;;2060977;28;19937;-77
2021/01/14 03:23:03;;;;;;;;;;;14.10;79.10;;;;;;2068413;28;19926;-78
2021/01/14 03:24:05;;;;;;;;;;;14.10;78.90;;;;;;2068731;28;19937;-78
2021/01/14 03:25:08;;;;;;;;;;;14.10;79.10;;;;;;2069439;28;19933;-79
2021/01/14 03:26:12;;;;;;;;;;;14.20;78.60;;;;;;2076960;28;19971;-76
2021/01/14 03:27:13;;;;;;;;;;;14.40;78.80;;;;;;2069193;28;19925;-78
2021/01/14 03:28:24;;;;;;;;;;;14.30;78.30;;;;;;2060725;28;19933;-78
2021/01/14 03:29:26;;;;;;;;;;;14.30;78.80;;;;;;2070001;28;19933;-78
2021/01/14 03:30:28;;;;;;;;;;;14.10;79.10;;;;;;2066529;28;20082;-78
2021/01/14 03:31:29;;;;;;;;;;;13.70;81.00;;;;;;2058232;28;19927;-77
2021/01/14 03:32:30;;;;;;;;;;;13.80;80.90;;;;;;2058555;28;20697;-78
2021/01/14 03:33:32;;;;;;;;;;;13.70;80.40;;;;;;2066267;28;19926;-77
2021/01/14 03:34:34;;;;;;;;;;;13.90;79.60;;;;;;2074266;28;20378;-77
2021/01/14 03:35:36;;;;;;;;;;;13.90;79.80;;;;;;2066535;28;19926;-77
2021/01/14 03:36:49;;;;;;;;;;;14.30;79.50;;;;;;2058483;28;19926;-77
2021/01/14 03:37:50;;;;;;;;;;;14.50;78.40;;;;;;2066032;28;20313;-78
2021/01/14 03:38:52;;;;;;;;;;;14.30;78.40;;;;;;2066520;28;19929;-78
2021/01/14 03:39:53;;;;;;;;;;;14.20;78.60;;;;;;2058430;28;19934;-77
2021/01/14 03:40:54;;;;;;;;;;;14.30;78.90;;;;;;2058974;28;19934;-79
2021/01/14 03:41:58;;;;;;;;;;;14.30;77.90;;;;;;2058825;28;19942;-78
2021/01/14 03:43:02;;;;;;;;;;;14.50;78.20;;;;;;2059500;28;20001;-78
2021/01/14 03:44:05;;;;;;;;;;;14.60;77.80;;;;;;2066939;28;19926;-77
2021/01/14 03:45:07;;;;;;;;;;;14.80;76.80;;;;;;2067111;28;19926;-77
2021/01/14 03:46:09;;;;;;;;;;;14.60;77.30;;;;;;2068147;28;19926;-78
2021/01/14 03:47:11;;;;;;;;;;;14.70;76.80;;;;;;2076664;28;19937;-78
2021/01/14 03:48:13;;;;;;;;;;;14.60;76.40;;;;;;2068874;28;19932;-77
2021/01/14 03:49:15;;;;;;;;;;;14.40;77.20;;;;;;2060530;28;19989;-77
2021/01/14 03:50:17;;;;;;;;;;;14.60;77.60;;;;;;2058935;28;19998;-79
2021/01/14 03:51:19;;;;;;;;;;;14.60;76.90;;;;;;2057786;28;19933;-78
2021/01/14 03:52:21;;;;;;;;;;;14.30;77.30;;;;;;2065995;28;20598;-78
2021/01/14 03:53:22;;;;;;;;;;;14.10;77.60;;;;;;2065513;28;20401;-78
2021/01/14 03:54:24;;;;;;;;;;;14.20;78.20;;;;;;2058068;28;19926;-78
2021/01/14 03:55:25;;;;;;;;;;;14.40;78.20;;;;;;2065700;28;20366;-79
2021/01/14 03:56:27;;;;;;;;;;;14.30;77.70;;;;;;2065912;28;20465;-77
2021/01/14 03:57:34;;;;;;;;;;;14.20;78.70;;;;;;2058157;28;20263;-77
2021/01/14 03:58:36;;;;;;;;;;;14.00;78.80;;;;;;2058752;28;19926;-77
2021/01/14 03:59:38;;;;;;;;;;;14.00;79.30;;;;;;2065026;28;19926;-77
2021/01/14 04:00:40;;;;;;;;;;;14.10;78.90;;;;;;2065779;28;19981;-76
2021/01/14 04:01:41;;;;;;;;;;;14.40;77.80;;;;;;2057420;28;19934;-79
2021/01/14 04:02:42;;;;;;;;;;;14.60;78.00;;;;;;2058113;28;19933;-78
2021/01/14 04:03:44;;;;;;;;;;;14.70;77.40;;;;;;2058148;28;19934;-78
2021/01/14 04:04:46;;;;;;;;;;;14.80;76.70;;;;;;2065965;28;19958;-77
2021/01/14 04:05:48;;;;;;;;;;;14.50;77.30;;;;;;2066218;28;19925;-76
2021/01/14 04:06:50;;;;;;;;;;;14.30;77.40;;;;;;2058227;28;19926;-78
2021/01/14 04:07:51;;;;;;;;;;;14.40;77.70;;;;;;2066310;28;19952;-78
2021/01/14 04:08:54;;;;;;;;;;;14.70;77.30;;;;;;2066246;28;19937;-77
2021/01/14 04:09:55;;;;;;;;;;;14.90;76.60;;;;;;2065937;28;19926;-76
2021/01/14 04:10:57;;;;;;;;;;;14.90;76.10;;;;;;2065631;28;19926;-75
2021/01/14 04:11:58;;;;;;;;;;;15.00;76.30;;;;;;2058415;28;19926;-78
2021/01/14 04:13:00;;;;;;;;;;;15.10;75.80;;;;;;2058407;28;19926;-75
2021/01/14 04:14:01;;;;;;;;;;;15.10;75.00;;;;;;2065302;28;19937;-75
2021/01/14 04:15:05;;;;;;;;;;;15.30;74.60;;;;;;2066685;28;19953;-76
2021/01/14 04:16:11;;;;;;;;;;;15.00;75.40;;;;;;2059210;28;19926;-75
2021/01/14 04:17:13;;;;;;;;;;;14.70;76.20;;;;;;2061981;28;19965;-76
2021/01/14 04:18:14;;;;;;;;;;;14.50;77.00;;;;;;2061822;28;20291;-79
2021/01/14 04:19:16;;;;;;;;;;;14.80;76.30;;;;;;2068366;28;19932;-76
2021/01/14 04:20:18;;;;;;;;;;;14.90;75.80;;;;;;2067146;28;20406;-77
2021/01/14 04:21:19;;;;;;;;;;;14.80;76.10;;;;;;2059476;28;19933;-77
2021/01/14 04:22:21;;;;;;;;;;;14.50;77.60;;;;;;2067255;28;19933;-77
2021/01/14 04:23:22;;;;;;;;;;;14.70;77.60;;;;;;2067546;28;19925;-77
2021/01/14 04:24:24;;;;;;;;;;;14.70;76.90;;;;;;2059771;28;19927;-77
2021/01/14 04:25:30;;;;;;;;;;;14.70;76.80;;;;;;2059924;28;19926;-77
2021/01/14 04:26:31;;;;;;;;;;;14.30;77.60;;;;;;2059769;28;20379;-78
2021/01/14 04:27:35;;;;;;;;;;;14.40;77.20;;;;;;2058206;28;20343;-78
2021/01/14 04:28:37;;;;;;;;;;;14.40;78.30;;;;;;2057935;28;19926;-77
2021/01/14 04:29:39;;;;;;;;;;;14.40;77.60;;;;;;2057993;28;19926;-77
2021/01/14 04:30:42;;;;;;;;;;;14.70;77.80;;;;;;2065411;28;19937;-78
2021/01/14 04:31:48;;;;;;;;;;;14.70;77.10;;;;;;2065739;28;19926;-78
2021/01/14 04:32:51;;;;;;;;;;;14.50;77.40;;;;;;2058435;28;19926;-77
2021/01/14 04:33:52;;;;;;;;;;;14.80;77.90;;;;;;2058319;28;20379;-78
2021/01/14 04:34:54;;;;;;;;;;;14.70;77.30;;;;;;2058934;28;20101;-77
2021/01/14 04:35:56;;;;;;;;;;;14.40;77.60;;;;;;2058673;28;19933;-79
2021/01/14 04:36:58;;;;;;;;;;;14.20;78.90;;;;;;2066626;28;19933;-77
2021/01/14 04:38:00;;;;;;;;;;;14.40;79.30;;;;;;2066766;28;19926;-77
2021/01/14 04:39:01;;;;;;;;;;;14.40;79.30;;;;;;2058649;28;19926;-78
2021/01/14 04:40:06;;;;;;;;;;;14.30;78.60;;;;;;2066679;28;19965;-78
2021/01/14 04:41:07;;;;;;;;;;;14.60;78.00;;;;;;2067108;28;19925;-77
2021/01/14 04:42:12;;;;;;;;;;;14.50;78.00;;;;;;2066731;28;19932;-77
2021/01/14 04:43:14;;;;;;;;;;;14.70;78.00;;;;;;2058769;28;19937;-77
2021/01/14 04:44:15;;;;;;;;;;;14.60;77.20;;;;;;2066435;28;19926;-78
2021/01/14 04:45:19;;;;;;;;;;;14.30;78.50;;;;;;2066671;28;19925;-78
2021/01/14 04:46:21;;;;;;;;;;;14.50;77.90;;;;;;2058621;28;19937;-78
2021/01/14 04:47:26;;;;;;;;;;;14.90;77.20;;;;;;2066419;28;19925;-77
2021/01/14 04:48:28;;;;;;;;;;;14.80;77.40;;;;;;2064828;28;19957;-77
2021/01/14 04:49:29;;;;;;;;;;;14.80;77.30;;;;;;2064855;28;19958;-78
2021/01/14 04:50:31;;;;;;;;;;;15.00;76.50;;;;;;2065459;28;20401;-77
2021/01/14 04:51:33;;;;;;;;;;;15.00;76.40;;;;;;2065218;28;19925;-75
2021/01/14 04:52:38;;;;;;;;;;;14.70;77.40;;;;;;2057638;28;19926;-77
2021/01/14 04:53:40;;;;;;;;;;;14.30;79.00;;;;;;2057659;28;19926;-78
2021/01/14 04:54:42;;;;;;;;;;;14.20;79.50;;;;;;2065158;28;19926;-79
2021/01/14 04:55:45;;;;;;;;;;;14.50;79.00;;;;;;2065417;28;19925;-78
2021/01/14 04:56:47;;;;;;;;;;;14.80;77.80;;;;;;2065072;28;19926;-78
2021/01/14 04:57:50;;;;;;;;;;;14.70;77.40;;;;;;2065804;28;19933;-77
2021/01/14 04:58:52;;;;;;;;;;;14.30;78.60;;;;;;2065402;28;19926;-77
2021/01/14 04:59:54;;;;;;;;;;;14.40;78.30;;;;;;2057396;28;19926;-77
2021/01/14 05:00:57;;;;;;;;;;;14.50;78.00;;;;;;2065328;28;19933;-78
2021/01/14 05:02:00;;;;;;;;;;;14.30;78.80;;;;;;2065246;28;20354;-77
2021/01/14 05:03:04;;;;;;;;;;;14.60;78.00;;;;;;2065712;28;20397;-76
2021/01/14 05:04:07;;;;;;;;;;;14.40;77.70;;;;;;2065643;28;20298;-78
2021/01/14 05:05:10;;;;;;;;;;;14.80;77.50;;;;;;2065316;28;19925;-77
2021/01/14 05:06:15;;;;;;;;;;;14.70;76.60;;;;;;2057761;28;19937;-77
2021/01/14 05:07:26;;;;;;;;;;;14.40;77.10;;;;;;2057391;28;20359;-78
2021/01/14 05:08:28;;;;;;;;;;;14.10;79.40;;;;;;2065295;28;19933;-77
2021/01/14 05:09:33;;;;;;;;;;;14.10;79.00;;;;;;2065115;28;19926;-77
2021/01/14 05:10:37;;;;;;;;;;;14.00;79.70;;;;;;2058168;28;19926;-77
2021/01/14 05:11:42;;;;;;;;;;;14.30;79.40;;;;;;2065421;28;20000;-77
2021/01/14 05:12:45;;;;;;;;;;;14.60;78.20;;;;;;2066617;28;19933;-77
2021/01/14 05:13:47;;;;;;;;;;;14.30;78.00;;;;;;2066267;28;20363;-76
2021/01/14 05:14:48;;;;;;;;;;;14.50;77.90;;;;;;2067471;28;19926;-77
2021/01/14 05:15:50;;;;;;;;;;;14.50;77.80;;;;;;2068180;28;20552;-77
2021/01/14 05:16:52;;;;;;;;;;;14.40;78.10;;;;;;2067852;28;19926;-77
2021/01/14 05:17:55;;;;;;;;;;;14.10;78.20;;;;;;2059317;28;19926;-80
2021/01/14 05:18:58;;;;;;;;;;;14.00;78.10;;;;;;2068015;28;19937;-77
2021/01/14 05:19:59;;;;;;;;;;;14.60;77.50;;;;;;2068086;28;19926;-77
2021/01/14 05:21:01;;;;;;;;;;;14.50;77.00;;;;;;2068571;28;20357;-77
2021/01/14 05:22:06;;;;;;;;;;;14.40;76.90;;;;;;2068124;28;19926;-77
2021/01/14 05:23:08;;;;;;;;;;;14.20;77.60;;;;;;2068004;28;19926;-77
2021/01/14 05:24:12;;;;;;;;;;;14.30;78.10;;;;;;2066283;28;19932;-78
2021/01/14 05:25:14;;;;;;;;;;;14.50;77.80;;;;;;2065848;28;19925;-77
2021/01/14 05:26:28;;;;;;;;;;;14.40;78.00;;;;;;2066314;28;19926;-77
2021/01/14 05:27:30;;;;;;;;;;;14.40;77.90;;;;;;2065326;28;19937;-76
2021/01/14 05:28:32;;;;;;;;;;;14.20;79.00;;;;;;2058286;28;20073;-77
2021/01/14 05:29:36;;;;;;;;;;;14.20;79.30;;;;;;2057884;28;19969;-77
2021/01/14 05:30:37;;;;;;;;;;;14.60;78.40;;;;;;2065585;28;20366;-77
2021/01/14 05:31:39;;;;;;;;;;;14.80;77.90;;;;;;2065943;28;20424;-77
2021/01/14 05:32:41;;;;;;;;;;;14.60;76.50;;;;;;2065368;28;19930;-78
2021/01/14 05:33:56;;;;;;;;;;;14.70;76.80;;;;;;2066363;28;20017;-77
2021/01/14 05:34:58;;;;;;;;;;;14.50;77.40;;;;;;2065527;28;19926;-77
2021/01/14 05:36:02;;;;;;;;;;;14.70;76.90;;;;;;2065007;28;19926;-77
2021/01/14 05:37:04;;;;;;;;;;;14.50;76.80;;;;;;2065762;28;19925;-77
2021/01/14 05:38:05;;;;;;;;;;;14.60;76.90;;;;;;2057685;28;20472;-77
2021/01/14 05:39:13;;;;;;;;;;;14.40;77.20;;;;;;2065555;28;20302;-77
2021/01/14 05:40:22;;;;;;;;;;;14.20;77.60;;;;;;2066259;28;19932;-76
2021/01/14 05:41:28;;;;;;;;;;;14.30;78.50;;;;;;2066090;28;20440;-78
2021/01/14 05:42:30;;;;;;;;;;;14.40;78.30;;;;;;2058324;28;19961;-77
2021/01/14 05:43:32;;;;;;;;;;;14.20;77.70;;;;;;2065922;28;19926;-77
2021/01/14 05:44:37;;;;;;;;;;;14.50;77.90;;;;;;2066103;28;19933;-78
2021/01/14 05:45:41;;;;;;;;;;;14.70;77.40;;;;;;2059050;28;20021;-78
2021/01/14 05:46:43;;;;;;;;;;;15.20;75.80;;;;;;2059212;28;19992;-77
2021/01/14 05:47:44;;;;;;;;;;;14.90;76.30;;;;;;2066581;28;20409;-77
2021/01/14 05:48:47;;;;;;;;;;;14.40;76.90;;;;;;2065415;28;20401;-77
2021/01/14 05:49:58;;;;;;;;;;;14.40;78.30;;;;;;2057894;28;19926;-77
2021/01/14 05:51:15;;;;;;;;;;;14.30;78.30;;;;;;2066605;28;19926;-77
2021/01/14 05:52:18;;;;;;;;;;;14.40;77.60;;;;;;2067271;28;19926;-77
2021/01/14 05:53:20;;;;;;;;;;;14.40;77.90;;;;;;2067230;28;19968;-77
2021/01/14 05:54:29;;;;;;;;;;;14.50;78.00;;;;;;2059892;28;19942;-77
2021/01/14 05:55:32;;;;;;;;;;;14.70;77.30;;;;;;2067344;28;19932;-76
2021/01/14 05:56:35;;;;;;;;;;;14.90;76.30;;;;;;2068272;28;20367;-77
2021/01/14 05:57:40;;;;;;;;;;;14.80;76.30;;;;;;2069041;28;19925;-77
2021/01/14 05:58:43;;;;;;;;;;;14.80;76.40;;;;;;2061795;28;19949;-77
2021/01/14 05:59:53;;;;;;;;;;;14.80;75.40;;;;;;2068099;28;19925;-77
2021/01/14 06:01:02;;;;;;;;;;;14.70;75.50;;;;;;2068300;28;20287;-77
2021/01/14 06:02:04;;;;;;;;;;;14.70;76.10;;;;;;2062750;28;19934;-78
2021/01/14 06:03:25;;;;;;;;;;;14.50;77.00;;;;;;2070794;28;19929;-77
2021/01/14 06:04:28;;;;;;;;;;;14.50;77.00;;;;;;2069165;28;19976;-77
2021/01/14 06:05:32;;;;;;;;;;;14.90;76.30;;;;;;2059540;28;19934;-77